createdAt,value
2023-05-24T00:02:26.995Z,13.50
2023-05-24T00:04:55.400Z,13.50
2023-05-24T00:07:23.228Z,13.40
2023-05-24T00:09:51.148Z,13.40
2023-05-24T00:12:18.987Z,13.30
2023-05-24T00:14:47.512Z,13.30
2023-05-24T00:17:15.336Z,13.30
2023-05-24T00:19:44.529Z,13.20
2023-05-24T00:22:14.119Z,13.20
2023-05-24T00:24:42.026Z,13.20
2023-05-24T00:27:11.816Z,13.10
2023-05-24T00:29:39.701Z,13.10
2023-05-24T00:32:08.000Z,13.20
2023-05-24T00:34:35.899Z,13.00
2023-05-24T00:37:05.327Z,13.00
2023-05-24T00:39:33.221Z,13.00
2023-05-24T00:42:01.361Z,12.90
2023-05-24T00:44:29.209Z,12.90
2023-05-24T00:46:57.276Z,12.90
2023-05-24T00:49:25.217Z,12.80
2023-05-24T00:51:54.476Z,12.80
2023-05-24T00:54:26.211Z,12.90
2023-05-24T00:56:55.434Z,12.70
2023-05-24T00:59:24.052Z,12.70
2023-05-24T01:01:52.361Z,12.70
2023-05-24T01:04:22.979Z,12.70
2023-05-24T01:07:07.753Z,12.60
2023-05-24T01:09:51.613Z,12.60
2023-05-24T01:12:27.929Z,12.60
2023-05-24T01:15:06.242Z,12.60
2023-05-24T01:17:42.742Z,12.60
2023-05-24T01:20:14.959Z,12.50
2023-05-24T01:23:06.335Z,12.50
2023-05-24T01:26:01.806Z,12.50
2023-05-24T01:28:32.696Z,12.50
2023-05-24T01:31:01.730Z,12.40
2023-05-24T01:33:30.259Z,12.40
2023-05-24T01:35:58.117Z,12.40
2023-05-24T01:38:26.025Z,12.40
2023-05-24T01:41:02.250Z,12.30
2023-05-24T01:43:38.923Z,12.30
2023-05-24T01:46:20.149Z,12.30
2023-05-24T01:48:58.591Z,12.30
2023-05-24T01:51:40.316Z,12.30
2023-05-24T01:54:08.784Z,12.30
2023-05-24T01:56:37.682Z,12.30
2023-05-24T01:59:08.140Z,12.20
2023-05-24T02:01:36.471Z,12.20
2023-05-24T02:04:04.981Z,12.30
2023-05-24T02:06:32.786Z,12.20
2023-05-24T02:09:00.694Z,12.20
2023-05-24T02:11:28.642Z,12.20
2023-05-24T02:13:56.478Z,12.20
2023-05-24T02:16:26.602Z,12.10
2023-05-24T02:18:54.589Z,12.10
2023-05-24T02:21:23.589Z,12.10
2023-05-24T02:23:51.671Z,13.80
2023-05-24T02:26:19.697Z,12.10
2023-05-24T02:28:48.796Z,12.10
2023-05-24T02:31:17.087Z,12.10
2023-05-24T02:33:46.607Z,12.10
2023-05-24T02:36:14.420Z,12.10
2023-05-24T02:38:42.261Z,12.10
2023-05-24T02:41:11.854Z,12.00
2023-05-24T02:43:39.837Z,12.00
2023-05-24T02:46:07.790Z,12.00
2023-05-24T02:48:36.647Z,12.00
2023-05-24T02:51:06.009Z,12.10
2023-05-24T02:53:34.217Z,12.00
2023-05-24T02:56:02.093Z,12.00
2023-05-24T02:58:30.491Z,12.00
2023-05-24T03:00:58.366Z,12.00
2023-05-24T03:03:26.305Z,12.20
2023-05-24T03:05:54.220Z,12.00
2023-05-24T03:08:23.460Z,11.90
2023-05-24T03:10:51.558Z,12.00
2023-05-24T03:13:19.725Z,11.90
2023-05-24T03:15:47.995Z,11.90
2023-05-24T03:18:16.378Z,11.90
2023-05-24T03:20:44.696Z,11.90
2023-05-24T03:23:13.245Z,11.90
2023-05-24T03:25:42.524Z,11.90
2023-05-24T03:28:10.633Z,11.90
2023-05-24T03:30:38.497Z,11.90
2023-05-24T03:33:06.381Z,11.80
2023-05-24T03:35:34.294Z,11.90
2023-05-24T03:38:02.161Z,11.80
2023-05-24T03:40:32.574Z,11.80
2023-05-24T03:43:03.603Z,11.80
2023-05-24T03:45:39.163Z,11.80
2023-05-24T03:48:07.981Z,11.80
2023-05-24T03:50:35.844Z,11.80
2023-05-24T03:53:03.640Z,11.80
2023-05-24T03:55:31.499Z,11.70
2023-05-24T03:58:00.743Z,11.70
2023-05-24T04:00:28.664Z,11.70
2023-05-24T04:02:56.956Z,11.70
2023-05-24T04:05:26.943Z,11.80
2023-05-24T04:07:54.865Z,11.80
2023-05-24T04:10:22.900Z,11.80
2023-05-24T04:12:51.157Z,11.80
2023-05-24T04:15:21.286Z,11.90
2023-05-24T04:17:54.728Z,11.80
2023-05-24T04:20:25.207Z,11.80
2023-05-24T04:22:53.375Z,11.90
2023-05-24T04:25:21.389Z,11.80
2023-05-24T04:27:50.321Z,11.90
2023-05-24T04:30:21.272Z,11.80
2023-05-24T04:32:49.742Z,11.80
2023-05-24T04:35:17.833Z,11.90
2023-05-24T04:37:46.623Z,11.90
2023-05-24T04:40:16.436Z,11.90
2023-05-24T04:42:44.578Z,11.90
2023-05-24T04:45:12.905Z,11.90
2023-05-24T04:47:42.558Z,12.00
2023-05-24T04:50:11.132Z,12.00
2023-05-24T04:52:39.239Z,12.00
2023-05-24T04:55:08.107Z,12.00
2023-05-24T04:57:36.015Z,12.10
2023-05-24T05:00:05.574Z,12.10
2023-05-24T05:02:34.464Z,12.10
2023-05-24T05:05:03.712Z,12.20
2023-05-24T05:07:31.731Z,12.20
2023-05-24T05:09:59.600Z,12.30
2023-05-24T05:12:27.425Z,12.30
2023-05-24T05:14:55.340Z,12.40
2023-05-24T05:17:23.205Z,12.50
2023-05-24T05:19:51.672Z,12.50
2023-05-24T05:22:20.909Z,12.60
2023-05-24T05:24:48.878Z,12.60
2023-05-24T05:27:16.741Z,12.70
2023-05-24T05:29:44.744Z,12.80
2023-05-24T05:32:12.903Z,12.80
2023-05-24T05:34:40.869Z,12.90
2023-05-24T05:37:08.726Z,13.00
2023-05-24T05:39:38.071Z,13.10
2023-05-24T05:42:06.711Z,13.20
2023-05-24T05:44:34.595Z,13.20
2023-05-24T05:47:03.948Z,13.30
2023-05-24T05:49:32.767Z,13.40
2023-05-24T05:52:00.594Z,13.50
2023-05-24T05:54:28.528Z,13.60
2023-05-24T05:56:59.522Z,13.70
2023-05-24T05:59:29.159Z,13.80
2023-05-24T06:01:57.023Z,13.90
2023-05-24T06:04:24.931Z,14.00
2023-05-24T06:06:52.807Z,14.00
2023-05-24T06:09:20.945Z,14.20
2023-05-24T06:11:48.827Z,14.20
2023-05-24T06:14:21.359Z,14.40
2023-05-24T06:16:49.753Z,14.40
2023-05-24T06:19:18.243Z,14.50
2023-05-24T06:21:47.961Z,14.60
2023-05-24T06:24:20.290Z,14.70
2023-05-24T06:26:48.698Z,14.80
2023-05-24T06:29:20.181Z,14.80
2023-05-24T06:31:49.046Z,15.20
2023-05-24T06:34:18.860Z,14.80
2023-05-24T06:36:48.815Z,15.10
2023-05-24T06:39:17.315Z,15.10
2023-05-24T06:41:46.822Z,15.20
2023-05-24T06:44:14.752Z,15.30
2023-05-24T06:46:44.203Z,15.30
2023-05-24T06:49:12.990Z,15.40
2023-05-24T06:51:40.948Z,15.50
2023-05-24T06:54:09.144Z,15.60
2023-05-24T06:56:37.047Z,15.70
2023-05-24T06:59:04.932Z,15.80
2023-05-24T07:01:33.116Z,15.90
2023-05-24T07:04:02.420Z,15.90
2023-05-24T07:06:30.338Z,16.00
2023-05-24T07:08:58.525Z,16.10
2023-05-24T07:11:27.542Z,16.20
2023-05-24T07:13:55.473Z,16.40
2023-05-24T07:16:23.482Z,16.50
2023-05-24T07:18:51.653Z,16.60
2023-05-24T07:21:21.397Z,16.70
2023-05-24T07:23:49.749Z,16.70
2023-05-24T07:26:18.133Z,16.90
2023-05-24T07:28:46.832Z,16.80
2023-05-24T07:31:14.768Z,16.90
2023-05-24T07:33:42.610Z,16.90
2023-05-24T07:36:10.699Z,17.00
2023-05-24T07:38:40.107Z,17.10
2023-05-24T07:41:09.106Z,17.10
2023-05-24T07:43:37.714Z,17.20
2023-05-24T07:46:06.111Z,17.20
2023-05-24T07:48:34.046Z,17.30
2023-05-24T07:51:01.952Z,17.30
2023-05-24T07:53:29.906Z,17.30
2023-05-24T07:55:59.077Z,17.30
2023-05-24T07:58:27.590Z,17.40
2023-05-24T08:00:55.820Z,17.40
2023-05-24T08:03:25.812Z,17.50
2023-05-24T08:05:53.894Z,17.60
2023-05-24T08:08:21.761Z,17.60
2023-05-24T08:10:50.072Z,17.70
2023-05-24T08:13:19.658Z,17.70
2023-05-24T08:15:47.855Z,17.80
2023-05-24T08:18:16.537Z,17.90
2023-05-24T08:20:44.649Z,17.90
2023-05-24T08:23:13.140Z,18.00
2023-05-24T08:25:41.245Z,18.00
2023-05-24T08:28:11.141Z,18.00
2023-05-24T08:30:40.786Z,18.00
2023-05-24T08:33:08.734Z,18.00
2023-05-24T08:35:36.936Z,18.00
2023-05-24T08:38:04.748Z,18.10
2023-05-24T08:40:32.608Z,18.10
2023-05-24T08:43:01.942Z,18.20
2023-05-24T08:45:31.964Z,18.20
2023-05-24T08:48:01.593Z,18.30
2023-05-24T08:50:30.686Z,19.30
2023-05-24T08:53:00.292Z,18.60
2023-05-24T08:55:29.960Z,18.70
2023-05-24T08:58:00.749Z,18.80
2023-05-24T09:00:28.980Z,18.80
2023-05-24T09:02:58.269Z,18.80
2023-05-24T09:05:28.192Z,18.90
2023-05-24T09:07:57.716Z,19.00
2023-05-24T09:10:26.905Z,19.10
2023-05-24T09:12:58.548Z,19.20
2023-05-24T09:15:26.638Z,19.20
2023-05-24T09:17:54.931Z,19.30
2023-05-24T09:20:23.299Z,19.40
2023-05-24T09:22:54.280Z,19.40
2023-05-24T09:25:22.636Z,19.50
2023-05-24T09:27:51.891Z,19.60
2023-05-24T09:30:20.968Z,19.70
2023-05-24T09:32:59.439Z,19.80
2023-05-24T09:35:28.109Z,19.90
2023-05-24T09:37:59.846Z,19.90
2023-05-24T09:40:29.432Z,20.00
2023-05-24T09:43:05.067Z,20.00
2023-05-24T09:45:33.343Z,20.10
2023-05-24T09:48:01.320Z,20.10
2023-05-24T09:50:29.369Z,20.10
2023-05-24T09:52:58.588Z,20.20
2023-05-24T09:55:28.773Z,20.20
2023-05-24T09:58:05.098Z,20.20
2023-05-24T10:00:36.805Z,20.20
2023-05-24T10:03:07.092Z,20.20
2023-05-24T10:05:36.502Z,20.20
2023-05-24T10:08:06.058Z,20.20
2023-05-24T10:10:34.868Z,20.20
2023-05-24T10:13:03.923Z,20.20
2023-05-24T10:15:32.021Z,20.20
2023-05-24T10:18:02.004Z,20.20
2023-05-24T10:20:30.389Z,20.40
2023-05-24T10:23:02.088Z,20.30
2023-05-24T10:25:35.826Z,20.40
2023-05-24T10:28:07.221Z,20.40
2023-05-24T10:30:43.445Z,20.40
2023-05-24T10:33:15.253Z,20.40
2023-05-24T10:35:44.830Z,20.40
2023-05-24T10:38:12.862Z,20.30
2023-05-24T10:40:44.225Z,20.40
2023-05-24T10:43:12.498Z,20.40
2023-05-24T10:45:41.372Z,20.40
2023-05-24T10:48:38.137Z,20.40
2023-05-24T10:51:34.846Z,20.40
2023-05-24T10:54:13.976Z,20.40
2023-05-24T10:56:45.806Z,20.50
2023-05-24T10:59:24.522Z,20.40
2023-05-24T11:02:00.794Z,20.50
2023-05-24T11:04:32.837Z,20.40
2023-05-24T11:07:03.575Z,20.50
2023-05-24T11:09:31.899Z,20.50
2023-05-24T11:12:07.404Z,20.60
2023-05-24T11:14:38.374Z,20.50
2023-05-24T11:17:08.605Z,20.60
2023-05-24T11:19:38.590Z,20.70
2023-05-24T11:22:09.110Z,20.70
2023-05-24T11:24:38.148Z,20.70
2023-05-24T11:27:07.908Z,20.70
2023-05-24T11:29:42.493Z,20.80
2023-05-24T11:32:10.726Z,20.80
2023-05-24T11:34:39.931Z,18.60
2023-05-24T11:37:08.140Z,20.80
2023-05-24T11:39:38.479Z,20.80
2023-05-24T11:42:09.126Z,20.90
2023-05-24T11:44:39.154Z,20.80
2023-05-24T11:47:08.951Z,21.00
2023-05-24T11:49:37.285Z,20.90
2023-05-24T11:52:07.332Z,20.90
2023-05-24T11:54:37.281Z,21.00
2023-05-24T11:57:07.886Z,21.00
2023-05-24T11:59:37.910Z,21.10
2023-05-24T12:02:07.959Z,21.10
2023-05-24T12:04:36.359Z,21.20
2023-05-24T12:07:05.635Z,21.20
2023-05-24T12:09:33.603Z,21.30
2023-05-24T12:12:01.925Z,21.30
2023-05-24T12:14:32.246Z,21.40
2023-05-24T12:17:00.838Z,21.50
2023-05-24T12:19:34.590Z,21.70
2023-05-24T12:22:05.770Z,21.70
2023-05-24T12:24:34.068Z,21.70
2023-05-24T12:27:06.637Z,21.80
2023-05-24T12:29:37.595Z,21.80
2023-05-24T12:32:06.438Z,21.90
2023-05-24T12:34:34.326Z,22.00
2023-05-24T12:37:03.533Z,22.00
2023-05-24T12:39:34.201Z,22.10
2023-05-24T12:42:03.354Z,22.10
2023-05-24T12:44:32.327Z,22.20
2023-05-24T12:47:03.531Z,22.30
2023-05-24T12:49:32.916Z,22.30
2023-05-24T12:52:01.849Z,22.40
2023-05-24T12:54:30.365Z,22.40
2023-05-24T12:56:59.894Z,22.50
2023-05-24T12:59:29.663Z,22.40
2023-05-24T13:01:57.677Z,22.50
2023-05-24T13:04:27.578Z,22.40
2023-05-24T13:06:56.034Z,22.40
2023-05-24T13:09:25.588Z,22.50
2023-05-24T13:11:54.189Z,22.60
2023-05-24T13:14:22.676Z,22.40
2023-05-24T13:16:50.845Z,22.50
2023-05-24T13:19:18.968Z,24.00
2023-05-24T13:21:48.999Z,22.40
2023-05-24T13:24:17.547Z,22.50
2023-05-24T13:26:46.034Z,22.50
2023-05-24T13:31:45.461Z,22.50
2023-05-24T13:34:13.726Z,22.50
2023-05-24T13:36:41.814Z,22.60
2023-05-24T13:39:15.590Z,22.50
2023-05-24T13:41:44.910Z,22.50
2023-05-24T13:44:13.697Z,22.50
2023-05-24T13:46:42.207Z,22.40
2023-05-24T13:49:10.832Z,22.50
2023-05-24T13:51:40.075Z,22.40
2023-05-24T13:54:08.357Z,22.40
2023-05-24T13:56:38.638Z,22.30
2023-05-24T13:59:08.420Z,22.30
2023-05-24T14:01:37.757Z,22.20
2023-05-24T14:04:06.246Z,22.20
2023-05-24T14:06:37.516Z,22.10
2023-05-24T14:09:06.956Z,22.10
2023-05-24T14:11:35.012Z,22.10
2023-05-24T14:16:35.104Z,22.20
2023-05-24T14:19:03.091Z,22.10
2023-05-24T14:21:31.013Z,22.10
2023-05-24T14:23:58.962Z,22.10
2023-05-24T14:26:27.662Z,22.20
2023-05-24T14:28:56.978Z,22.10
2023-05-24T14:31:26.619Z,22.10
2023-05-24T14:33:54.752Z,22.10
2023-05-24T14:36:22.764Z,22.20
2023-05-24T14:38:50.889Z,22.30
2023-05-24T14:41:18.867Z,22.50
2023-05-24T14:43:47.464Z,22.60
2023-05-24T14:46:16.090Z,22.60
2023-05-24T14:48:46.228Z,22.70
2023-05-24T14:51:14.248Z,22.80
2023-05-24T14:53:42.067Z,22.90
2023-05-24T14:56:10.187Z,22.90
2023-05-24T14:58:38.333Z,23.00
2023-05-24T15:01:06.805Z,23.00
2023-05-24T15:03:35.060Z,23.00
2023-05-24T15:06:05.385Z,23.00
2023-05-24T15:08:35.095Z,23.00
2023-05-24T15:11:03.026Z,22.90
2023-05-24T15:13:31.156Z,23.00
2023-05-24T15:16:00.380Z,23.10
2023-05-24T15:18:29.004Z,23.20
2023-05-24T15:20:57.070Z,23.50
2023-05-24T15:23:26.793Z,23.90
2023-05-24T15:25:54.702Z,24.20
2023-05-24T15:28:23.974Z,24.50
2023-05-24T15:30:54.358Z,24.80
2023-05-24T15:33:22.457Z,25.10
2023-05-24T15:35:50.960Z,25.40
2023-05-24T15:38:18.922Z,25.70
2023-05-24T15:40:48.835Z,26.10
2023-05-24T15:43:18.729Z,26.20
2023-05-24T15:45:47.836Z,26.40
2023-05-24T15:48:15.995Z,26.50
2023-05-24T15:51:09.368Z,26.60
2023-05-24T15:53:32.504Z,26.60
2023-05-24T15:56:01.745Z,26.70
2023-05-24T15:58:29.628Z,26.70
2023-05-24T16:00:57.476Z,26.70
2023-05-24T16:03:25.430Z,25.30
2023-05-24T16:05:53.412Z,26.20
2023-05-24T16:08:27.378Z,25.90
2023-05-24T16:10:55.445Z,25.70
2023-05-24T16:13:24.932Z,25.40
2023-05-24T16:15:52.904Z,25.10
2023-05-24T16:18:22.467Z,24.90
2023-05-24T16:20:51.796Z,24.70
2023-05-24T16:23:22.799Z,24.40
2023-05-24T16:25:51.315Z,24.20
2023-05-24T16:28:23.761Z,24.10
2023-05-24T16:30:55.811Z,23.80
2023-05-24T16:33:24.246Z,23.60
2023-05-24T16:36:00.511Z,23.30
2023-05-24T16:38:30.051Z,23.00
2023-05-24T16:40:58.035Z,22.80
2023-05-24T16:43:26.021Z,22.60
2023-05-24T16:45:56.099Z,22.40
2023-05-24T16:48:28.066Z,22.20
2023-05-24T16:50:56.666Z,22.00
2023-05-24T16:53:26.090Z,21.90
2023-05-24T16:55:55.620Z,21.70
2023-05-24T16:58:24.423Z,21.60
2023-05-24T17:00:54.227Z,21.40
2023-05-24T17:03:27.748Z,21.30
2023-05-24T17:05:58.912Z,21.20
2023-05-24T17:08:28.576Z,21.00
2023-05-24T17:10:57.089Z,20.90
2023-05-24T17:13:27.315Z,20.80
2023-05-24T17:15:55.853Z,20.70
2023-05-24T17:18:29.085Z,20.70
2023-05-24T17:20:57.886Z,20.70
2023-05-24T17:23:26.575Z,20.60
2023-05-24T17:25:55.496Z,20.60
2023-05-24T17:28:27.335Z,20.60
2023-05-24T17:30:55.777Z,20.50
2023-05-24T17:33:26.030Z,20.50
2023-05-24T17:35:56.312Z,20.40
2023-05-24T17:38:24.804Z,20.40
2023-05-24T17:40:56.869Z,20.40
2023-05-24T17:43:28.683Z,20.40
2023-05-24T17:46:03.036Z,20.30
2023-05-24T17:48:33.061Z,20.30
2023-05-24T17:51:01.827Z,20.30
2023-05-24T17:53:32.097Z,20.30
2023-05-24T17:56:00.666Z,20.30
2023-05-24T17:58:28.553Z,20.30
2023-05-24T18:00:56.451Z,20.30
2023-05-24T18:03:25.005Z,20.30
2023-05-24T18:05:54.228Z,20.30
2023-05-24T18:08:22.954Z,20.60
2023-05-24T18:10:51.490Z,20.20
2023-05-24T18:13:19.548Z,20.20
2023-05-24T18:15:48.877Z,20.20
2023-05-24T18:18:17.464Z,20.10
2023-05-24T18:20:45.812Z,20.10
2023-05-24T18:23:15.381Z,20.10
2023-05-24T18:25:45.324Z,20.00
2023-05-24T18:28:13.559Z,20.00
2023-05-24T18:30:42.798Z,21.40
2023-05-24T18:33:10.821Z,20.10
2023-05-24T18:35:38.893Z,19.90
2023-05-24T18:38:06.711Z,19.90
2023-05-24T18:40:35.907Z,19.90
2023-05-24T18:43:03.817Z,19.80
2023-05-24T18:45:31.759Z,19.80
2023-05-24T18:48:01.020Z,19.80
2023-05-24T18:50:28.921Z,19.80
2023-05-24T18:52:57.268Z,19.80
2023-05-24T18:55:25.112Z,19.80
2023-05-24T18:57:54.370Z,19.80
2023-05-24T19:00:22.834Z,19.80
2023-05-24T19:02:51.768Z,19.70
2023-05-24T19:05:20.881Z,19.70
2023-05-24T19:07:48.940Z,19.80
2023-05-24T19:10:17.646Z,19.70
2023-05-24T19:12:45.677Z,19.70
2023-05-24T19:15:15.332Z,19.70
2023-05-24T19:17:43.219Z,19.70
2023-05-24T19:20:12.653Z,19.70
2023-05-24T19:22:40.709Z,19.70
2023-05-24T19:25:09.529Z,19.70
2023-05-24T19:27:39.791Z,19.70
2023-05-24T19:30:17.346Z,19.70
2023-05-24T19:32:45.322Z,19.70
2023-05-24T19:35:13.364Z,19.60
2023-05-24T19:37:41.240Z,19.60
2023-05-24T19:40:09.982Z,19.60
2023-05-24T19:42:37.898Z,19.60
2023-05-24T19:45:06.809Z,19.50
2023-05-24T19:47:36.036Z,19.50
2023-05-24T19:50:04.167Z,19.50
2023-05-24T19:52:32.139Z,19.40
2023-05-24T19:55:00.144Z,19.40
2023-05-24T19:57:28.049Z,19.30
2023-05-24T19:59:56.242Z,19.30
2023-05-24T20:02:24.370Z,19.30
2023-05-24T20:04:54.790Z,19.20
2023-05-24T20:07:22.710Z,19.20
2023-05-24T20:09:50.839Z,19.20
2023-05-24T20:12:18.618Z,19.10
2023-05-24T20:14:46.673Z,19.10
2023-05-24T20:17:14.661Z,19.10
2023-05-24T20:19:42.534Z,19.00
2023-05-24T20:22:12.519Z,19.00
2023-05-24T20:24:40.328Z,19.00
2023-05-24T20:27:08.201Z,19.00
2023-05-24T20:29:36.164Z,19.00
2023-05-24T20:32:04.144Z,18.80
2023-05-24T20:34:32.004Z,18.80
2023-05-24T20:36:59.970Z,18.80
2023-05-24T20:39:29.169Z,17.20
2023-05-24T20:41:58.471Z,18.80
2023-05-24T20:44:26.660Z,18.80
2023-05-24T20:46:54.774Z,18.70
2023-05-24T20:49:22.614Z,18.70
2023-05-24T20:51:50.946Z,18.60
2023-05-24T20:54:18.986Z,18.60
2023-05-24T20:56:48.960Z,18.60
2023-05-24T20:59:17.440Z,18.50
2023-05-24T21:01:45.701Z,18.40
2023-05-24T21:04:14.158Z,18.40
2023-05-24T21:06:42.112Z,17.60
2023-05-24T21:09:10.334Z,18.30
2023-05-24T21:11:38.436Z,18.30
2023-05-24T21:14:07.623Z,18.20
2023-05-24T21:16:36.479Z,18.20
2023-05-24T21:19:04.331Z,18.10
2023-05-24T21:21:32.161Z,18.30
2023-05-24T21:24:00.039Z,18.00
2023-05-24T21:26:27.960Z,18.00
2023-05-24T21:28:55.813Z,17.90
2023-05-24T21:31:25.964Z,19.60
2023-05-24T21:33:55.764Z,17.90
2023-05-24T21:36:23.658Z,17.80
2023-05-24T21:38:51.564Z,17.80
2023-05-24T21:41:19.479Z,17.80
2023-05-24T21:43:47.766Z,17.70
2023-05-24T21:46:15.674Z,17.70
2023-05-24T21:48:45.590Z,17.70
2023-05-24T21:51:15.529Z,17.70
2023-05-24T21:53:43.516Z,17.60
2023-05-24T21:56:11.654Z,17.90
2023-05-24T21:58:39.498Z,17.60
2023-05-24T22:01:08.571Z,17.60
2023-05-24T22:03:38.205Z,17.50
2023-05-24T22:06:07.788Z,17.50
2023-05-24T22:08:35.759Z,17.40
2023-05-24T22:11:03.650Z,17.40
2023-05-24T22:13:31.540Z,17.30
2023-05-24T22:15:59.526Z,17.30
2023-05-24T22:18:28.200Z,17.30
2023-05-24T22:20:58.967Z,17.20
2023-05-24T22:23:28.207Z,17.20
2023-05-24T22:25:56.099Z,19.00
2023-05-24T22:28:24.794Z,17.10
2023-05-24T22:30:53.211Z,17.10
2023-05-24T22:33:21.175Z,17.10
2023-05-24T22:35:49.674Z,17.10
2023-05-24T22:38:17.915Z,17.00
2023-05-24T22:40:47.591Z,17.00
2023-05-24T22:43:15.668Z,17.00
2023-05-24T22:45:43.699Z,17.00
2023-05-24T22:48:11.742Z,16.90
2023-05-24T22:50:39.619Z,16.90
2023-05-24T22:53:09.068Z,16.90
2023-05-24T22:55:36.928Z,16.80
2023-05-24T22:58:06.209Z,16.80
2023-05-24T23:00:34.046Z,16.80
2023-05-24T23:03:01.963Z,16.70
2023-05-24T23:05:30.453Z,16.70
2023-05-24T23:07:58.617Z,16.70
2023-05-24T23:10:26.506Z,16.60
2023-05-24T23:12:55.212Z,16.60
2023-05-24T23:15:28.982Z,16.60
2023-05-24T23:17:57.170Z,16.60
2023-05-24T23:20:25.843Z,16.50
2023-05-24T23:22:53.841Z,16.50
2023-05-24T23:25:21.697Z,16.40
2023-05-24T23:27:49.741Z,16.40
2023-05-24T23:30:17.894Z,18.40
2023-05-24T23:32:47.578Z,16.40
2023-05-24T23:35:15.810Z,16.30
2023-05-24T23:37:43.653Z,16.20
2023-05-24T23:40:12.820Z,16.20
2023-05-24T23:42:40.717Z,16.20
2023-05-24T23:45:09.296Z,16.20
2023-05-24T23:47:37.155Z,16.10
2023-05-24T23:50:07.870Z,16.10
2023-05-24T23:52:36.003Z,16.10
2023-05-24T23:55:04.315Z,16.20
2023-05-24T23:57:32.114Z,16.00
2023-05-24T23:59:59.945Z,16.10
